This is the latest recevied weather packets stored in our database for station/object KF0FSA. If no packets are shown the sender has not sent any weather packets the latest 10 day(s).
| Time | Temp. | Humidity | Pressure | Rain* | Wind** | Luminosity | Snow |
|---|---|---|---|---|---|---|---|
| 1777598318 | 8.89° C | 64% | 963.5 hPa | 0 mm | - | 7 W/m² | - |
| 1777598018 | 8.89° C | 64% | 963.6 hPa | 0 mm | - | 10 W/m² | - |
| 1777597721 | 8.89° C | 63% | 963.7 hPa | 0 mm | - | 10 W/m² | - |
| 1777597419 | 8.89° C | 62% | 963.7 hPa | 0 mm | - | 11 W/m² | - |
| 1777597118 | 8.89° C | 62% | 963.7 hPa | 0 mm | - | 11 W/m² | - |
| 1777596819 | 8.89° C | 63% | 963.8 hPa | 0 mm | - | 16 W/m² | - |
| 1777596519 | 8.89° C | 62% | 963.8 hPa | 0 mm | - | 22 W/m² | - |
| 1777596219 | 8.89° C | 61% | 963.8 hPa | 0 mm | - | 25 W/m² | - |
| 1777595918 | 9.44° C | 60% | 963.7 hPa | 0 mm | - | 31 W/m² | - |
| 1777595619 | 9.44° C | 59% | 963.7 hPa | 0 mm | - | 47 W/m² | - |
| 1777595443 | 9.44° C | 59% | 963.7 hPa | 0 mm | - | 57 W/m² | - |
| 1777595143 | 9.44° C | 57% | 963.7 hPa | 0 mm | - | 62 W/m² | - |
| 1777594716 | 9.44° C | 57% | 963.7 hPa | 0 mm | - | 72 W/m² | - |
| 1777594541 | 10° C | 56% | 963.6 hPa | 0 mm | - | 80 W/m² | - |
| 1777594113 | 10° C | 54% | 963.6 hPa | 0 mm | - | 147 W/m² | - |
| 1777593938 | 9.44° C | 57% | 963.7 hPa | 0 mm | - | 139 W/m² | - |
| 1777593514 | 9.44° C | 58% | 963.8 hPa | 0 mm | - | 99 W/m² | - |
| 1777593213 | 9.44° C | 61% | 963.8 hPa | 0 mm | - | 203 W/m² | - |
| 1777592913 | 8.89° C | 62% | 963.9 hPa | 0 mm | - | 179 W/m² | - |
| 1777592614 | 8.33° C | 65% | 964.2 hPa | 0 mm | - | 87 W/m² | - |
| 1777592313 | 8.89° C | 67% | 964.3 hPa | 0 mm | - | 49 W/m² | - |
| 1777592138 | 9.44° C | 64% | 964.4 hPa | 0 mm | - | 58 W/m² | - |
| 1777591714 | 10.56° C | 60% | 964.2 hPa | 0 mm | - | 67 W/m² | - |
| 1777591413 | 11.67° C | 42% | 963.9 hPa | 0 mm | - | 89 W/m² | - |
| 1777591240 | 12.22° C | 41% | 963.6 hPa | 0 mm | - | 111 W/m² | - |
* Rain latest hour (hover to see other rain measurements)
** Current wind speed in m/s (hover to see current wind gust speed)